Time;durP1;ratioP1;P1;durP2;ratioP2;P2;SDS_P1;SDS_P2;PMS_P1;PMS_P2;Temp;Humidity;BMP_temperature;BMP_pressure;BME280_temperature;BME280_humidity;BME280_pressure;Samples;Min_cycle;Max_cycle;Signal;HPM_P1;HPM_P2
2023/07/18 00:01:20;;;;;;;5.40;1.53;;;;;;;;;;4999647;28;20493;-90
2023/07/18 00:03:46;;;;;;;3.20;1.80;;;;;;;;;;4966107;28;20429;-92
2023/07/18 00:45:51;;;;;;;2.87;1.53;;;;;;;;;;5013953;28;20166;-92
2023/07/18 00:48:18;;;;;;;5.23;1.43;;;;;;;;;;4985407;28;20256;-90
2023/07/18 00:50:43;;;;;;;2.27;1.40;;;;;;;;;;4969133;28;20496;-91
2023/07/18 00:53:09;;;;;;;3.87;1.63;;;;;;;;;;4977259;28;20540;-89
2023/07/18 00:55:35;;;;;;;3.10;1.23;;;;;;;;;;4970020;28;20409;-90
2023/07/18 00:58:02;;;;;;;4.07;1.63;;;;;;;;;;4969572;28;20944;-92
2023/07/18 01:00:28;;;;;;;2.00;1.53;;;;;;;;;;4964782;28;20457;-90
2023/07/18 01:02:54;;;;;;;4.67;1.33;;;;;;;;;;4993361;28;20468;-92
2023/07/18 01:05:20;;;;;;;2.57;1.67;;;;;;;;;;4948805;28;20425;-90
2023/07/18 01:07:46;;;;;;;4.40;1.70;;;;;;;;;;4959639;28;20480;-90
2023/07/18 01:10:25;;;;;;;2.10;1.40;;;;;;;;;;4954210;28;20910;-91
2023/07/18 01:12:52;;;;;;;2.50;1.20;;;;;;;;;;4969039;28;20447;-94
2023/07/18 01:15:18;;;;;;;2.20;1.13;;;;;;;;;;4963670;28;20913;-93
2023/07/18 01:17:45;;;;;;;2.33;1.57;;;;;;;;;;4977676;28;20504;-94
2023/07/18 01:20:14;;;;;;;2.77;1.20;;;;;;;;;;4968907;28;20545;-91
2023/07/18 01:22:40;;;;;;;2.10;1.40;;;;;;;;;;4963147;28;20481;-90
2023/07/18 01:25:11;;;;;;;2.67;1.93;;;;;;;;;;4962026;28;20517;-92
2023/07/18 01:27:37;;;;;;;2.23;1.70;;;;;;;;;;4966858;28;20793;-91
2023/07/18 01:30:05;;;;;;;2.60;1.23;;;;;;;;;;4968242;28;20429;-91
2023/07/18 01:32:31;;;;;;;3.87;1.30;;;;;;;;;;4968543;28;20413;-92
2023/07/18 01:34:58;;;;;;;2.57;1.37;;;;;;;;;;4981800;28;20503;-91
2023/07/18 01:37:24;;;;;;;2.50;1.77;;;;;;;;;;4957236;28;20433;-94
2023/07/18 01:39:50;;;;;;;4.47;1.40;;;;;;;;;;4965976;28;20461;-95
2023/07/18 01:42:16;;;;;;;4.50;1.60;;;;;;;;;;4967001;28;20874;-94
2023/07/18 01:44:43;;;;;;;2.80;1.27;;;;;;;;;;4967637;28;20417;-93
2023/07/18 01:47:09;;;;;;;2.13;1.30;;;;;;;;;;4970075;28;20444;-93
2023/07/18 01:49:36;;;;;;;5.03;1.07;;;;;;;;;;4969228;28;20433;-93
2023/07/18 01:52:03;;;;;;;2.40;1.47;;;;;;;;;;4968562;28;20433;-95
2023/07/18 01:54:29;;;;;;;1.73;1.40;;;;;;;;;;4968320;28;20425;-93
2023/07/18 01:56:55;;;;;;;2.33;1.50;;;;;;;;;;4962305;28;20459;-93
2023/07/18 01:59:22;;;;;;;3.07;1.40;;;;;;;;;;4968992;28;20461;-93
2023/07/18 02:01:48;;;;;;;2.80;1.37;;;;;;;;;;4970535;28;20483;-93
2023/07/18 02:04:14;;;;;;;3.40;1.50;;;;;;;;;;4967732;28;20480;-93
2023/07/18 02:06:40;;;;;;;2.33;1.30;;;;;;;;;;4966776;28;20468;-93
2023/07/18 02:09:07;;;;;;;5.73;1.60;;;;;;;;;;4963930;28;20426;-93
2023/07/18 02:11:33;;;;;;;2.00;1.30;;;;;;;;;;4949246;28;20930;-93
2023/07/18 02:13:59;;;;;;;5.90;1.70;;;;;;;;;;4961735;28;20430;-93
2023/07/18 02:16:25;;;;;;;5.23;2.10;;;;;;;;;;4970156;28;20527;-94
2023/07/18 02:18:51;;;;;;;2.23;1.47;;;;;;;;;;4985720;28;20964;-93
2023/07/18 02:21:18;;;;;;;4.70;1.87;;;;;;;;;;4970689;28;20425;-94
2023/07/18 02:23:44;;;;;;;2.70;1.70;;;;;;;;;;4961444;28;20460;-93
2023/07/18 02:26:10;;;;;;;2.80;1.57;;;;;;;;;;4964897;28;20433;-93
2023/07/18 02:28:36;;;;;;;2.80;1.57;;;;;;;;;;4972521;28;20879;-94
2023/07/18 02:31:02;;;;;;;2.30;1.37;;;;;;;;;;4972593;28;20404;-95
2023/07/18 02:33:28;;;;;;;2.20;1.50;;;;;;;;;;4970873;28;20425;-93
2023/07/18 02:35:56;;;;;;;3.27;1.63;;;;;;;;;;4971232;28;20486;-94
2023/07/18 02:38:23;;;;;;;3.50;1.20;;;;;;;;;;4966229;28;20425;-94
2023/07/18 02:40:49;;;;;;;3.20;1.83;;;;;;;;;;4971537;28;20483;-93
2023/07/18 02:43:15;;;;;;;2.10;1.43;;;;;;;;;;4970705;28;20410;-95
2023/07/18 02:45:41;;;;;;;2.30;1.27;;;;;;;;;;4975742;28;20438;-93
2023/07/18 02:48:07;;;;;;;2.80;1.60;;;;;;;;;;4973398;28;20504;-94
2023/07/18 02:50:33;;;;;;;2.90;1.27;;;;;;;;;;4972574;28;20858;-93
2023/07/18 02:52:59;;;;;;;3.00;1.50;;;;;;;;;;4971370;28;20456;-94
2023/07/18 02:55:25;;;;;;;2.93;1.43;;;;;;;;;;4972206;28;20455;-94
2023/07/18 02:57:54;;;;;;;2.67;1.47;;;;;;;;;;4958476;28;20431;-94
2023/07/18 03:00:25;;;;;;;7.13;1.73;;;;;;;;;;4971687;28;20460;-96
2023/07/18 03:02:52;;;;;;;2.43;1.30;;;;;;;;;;4963276;28;20489;-95
2023/07/18 03:05:24;;;;;;;3.43;1.50;;;;;;;;;;4972034;28;20424;-93
2023/07/18 03:07:50;;;;;;;3.77;1.63;;;;;;;;;;4970281;28;20493;-93
2023/07/18 03:10:17;;;;;;;2.53;1.57;;;;;;;;;;4964888;28;20453;-93
2023/07/18 03:12:46;;;;;;;2.40;1.33;;;;;;;;;;4968918;28;20484;-94
2023/07/18 03:15:12;;;;;;;3.57;1.30;;;;;;;;;;4973102;28;20517;-95
2023/07/18 03:17:38;;;;;;;2.87;1.30;;;;;;;;;;4967742;28;21076;-94
2023/07/18 03:20:16;;;;;;;2.50;1.30;;;;;;;;;;4971318;28;20473;-94
2023/07/18 03:22:42;;;;;;;5.23;1.47;;;;;;;;;;4969327;28;20429;-94
2023/07/18 03:45:54;;;;;;;2.73;1.60;;;;;;;;;;5061603;23;20567;-91
2023/07/18 03:48:22;;;;;;;4.93;1.97;;;;;;;;;;4987791;28;20507;-90
2023/07/18 03:50:48;;;;;;;6.43;2.00;;;;;;;;;;4974851;28;20436;-89
2023/07/18 03:53:14;;;;;;;3.10;1.40;;;;;;;;;;4969200;28;20436;-90
2023/07/18 03:55:40;;;;;;;3.00;1.93;;;;;;;;;;4970241;28;20449;-89
2023/07/18 05:04:20;;;;;;;6.10;1.60;;;;;;;;;;5001849;28;20621;-93
2023/07/18 05:06:46;;;;;;;3.30;2.17;;;;;;;;;;4973758;28;20533;-89
2023/07/18 05:09:13;;;;;;;4.87;1.90;;;;;;;;;;4981962;28;20501;-94
2023/07/18 05:11:39;;;;;;;5.53;2.07;;;;;;;;;;4972404;28;20987;-91
2023/07/18 05:14:05;;;;;;;4.10;1.93;;;;;;;;;;4969087;28;20409;-91
2023/07/18 05:16:35;;;;;;;1.70;1.17;;;;;;;;;;4972128;28;20433;-94
2023/07/18 06:24:01;;;;;;;5.23;3.27;;;;;;;;;;4977250;28;20489;-92
2023/07/18 06:26:27;;;;;;;5.43;2.93;;;;;;;;;;4943445;28;20442;-89
2023/07/18 06:28:53;;;;;;;4.23;3.00;;;;;;;;;;4945209;28;20430;-90
2023/07/18 06:31:19;;;;;;;4.20;1.90;;;;;;;;;;4960384;28;20433;-90
2023/07/18 06:33:45;;;;;;;5.73;2.87;;;;;;;;;;4947270;28;20501;-91
2023/07/18 06:36:13;;;;;;;4.13;3.03;;;;;;;;;;4965397;28;20449;-90
2023/07/18 06:38:39;;;;;;;6.73;2.87;;;;;;;;;;4953120;28;20486;-90
2023/07/18 06:41:05;;;;;;;6.20;1.97;;;;;;;;;;4955374;28;20493;-94
2023/07/18 06:43:32;;;;;;;3.60;2.10;;;;;;;;;;4954194;28;20422;-94
2023/07/18 06:45:58;;;;;;;3.73;2.30;;;;;;;;;;4954684;28;20429;-93
2023/07/18 06:48:33;;;;;;;5.03;2.90;;;;;;;;;;4959371;28;20949;-93
2023/07/18 06:51:02;;;;;;;5.27;2.90;;;;;;;;;;4947624;28;20433;-92
2023/07/18 06:53:28;;;;;;;3.93;2.40;;;;;;;;;;4956754;28;20422;-95
2023/07/18 06:55:55;;;;;;;6.53;3.20;;;;;;;;;;4964768;28;20473;-94
2023/07/18 06:58:21;;;;;;;15.13;7.60;;;;;;;;;;4948367;28;20449;-93
2023/07/18 07:00:47;;;;;;;3.20;2.70;;;;;;;;;;4953066;28;20993;-94
2023/07/18 07:03:13;;;;;;;6.00;3.03;;;;;;;;;;4952534;28;20434;-94
2023/07/18 07:05:40;;;;;;;4.13;2.70;;;;;;;;;;4951055;28;20493;-91
2023/07/18 07:08:08;;;;;;;5.83;2.87;;;;;;;;;;4946991;28;20446;-89
2023/07/18 07:10:38;;;;;;;3.77;3.00;;;;;;;;;;4948055;28;20423;-89
2023/07/18 07:13:04;;;;;;;8.90;2.67;;;;;;;;;;4947224;28;20465;-91
2023/07/18 07:15:31;;;;;;;6.50;2.17;;;;;;;;;;4972002;28;20874;-92
2023/07/18 07:17:57;;;;;;;8.10;2.30;;;;;;;;;;4952119;28;20429;-90
2023/07/18 07:20:25;;;;;;;4.13;2.67;;;;;;;;;;4963575;28;20453;-94
2023/07/18 07:22:54;;;;;;;8.67;2.60;;;;;;;;;;4959877;28;20462;-94
2023/07/18 07:25:24;;;;;;;4.73;2.20;;;;;;;;;;4964680;28;20426;-95
2023/07/18 07:27:54;;;;;;;3.00;2.50;;;;;;;;;;4958112;28;20430;-95
2023/07/18 07:30:21;;;;;;;5.63;2.63;;;;;;;;;;4977771;28;20423;-95
2023/07/18 07:32:48;;;;;;;3.60;2.70;;;;;;;;;;4958648;28;20457;-96
2023/07/18 07:35:16;;;;;;;3.93;2.40;;;;;;;;;;4979623;28;20462;-94
2023/07/18 07:37:42;;;;;;;4.30;2.93;;;;;;;;;;4973083;28;20406;-95
2023/07/18 07:40:11;;;;;;;3.10;2.50;;;;;;;;;;4976591;28;20460;-96
2023/07/18 07:42:40;;;;;;;3.63;2.50;;;;;;;;;;4959380;28;20429;-96
2023/07/18 07:45:20;;;;;;;5.33;2.37;;;;;;;;;;4970840;28;20454;-96
2023/07/18 07:47:48;;;;;;;4.47;2.83;;;;;;;;;;4980554;28;20402;-93
2023/07/18 07:50:14;;;;;;;6.13;2.33;;;;;;;;;;4955588;28;20439;-96
2023/07/18 07:52:41;;;;;;;5.30;2.43;;;;;;;;;;4971384;29;20443;-94
2023/07/18 07:55:07;;;;;;;4.50;2.73;;;;;;;;;;4970227;28;20435;-94
2023/07/18 07:57:34;;;;;;;4.90;2.50;;;;;;;;;;4947994;28;20488;-93
2023/07/18 08:00:00;;;;;;;8.17;2.80;;;;;;;;;;4878998;29;20619;-94
2023/07/18 08:02:27;;;;;;;5.73;2.40;;;;;;;;;;4881893;29;20431;-96
2023/07/18 08:05:24;;;;;;;5.10;2.87;;;;;;;;;;4881460;29;20438;-96
2023/07/18 08:07:52;;;;;;;6.77;2.60;;;;;;;;;;4909498;29;20429;-94
2023/07/18 08:10:19;;;;;;;3.53;2.43;;;;;;;;;;4899642;29;21091;-95
2023/07/18 08:12:46;;;;;;;7.50;2.80;;;;;;;;;;4898065;29;20461;-95
2023/07/18 08:15:11;;;;;;;3.60;2.67;;;;;;;;;;4895422;29;20434;-95
2023/07/18 08:17:38;;;;;;;5.10;2.30;;;;;;;;;;4876599;29;20549;-96
2023/07/18 08:20:08;;;;;;;3.27;2.70;;;;;;;;;;4895519;29;20496;-96
2023/07/18 08:22:34;;;;;;;10.13;2.90;;;;;;;;;;4875839;29;20719;-93
2023/07/18 08:25:00;;;;;;;6.17;2.87;;;;;;;;;;4872553;29;20466;-95
2023/07/18 08:27:26;;;;;;;3.90;2.57;;;;;;;;;;4875609;29;20444;-95
2023/07/18 08:29:52;;;;;;;11.10;2.63;;;;;;;;;;4898260;29;20464;-94
2023/07/18 08:32:18;;;;;;;4.80;2.80;;;;;;;;;;4890254;29;20433;-96
2023/07/18 08:34:44;;;;;;;6.50;3.00;;;;;;;;;;4878038;29;20477;-94
2023/07/18 08:37:10;;;;;;;6.37;2.40;;;;;;;;;;4919376;28;20441;-92
2023/07/18 08:39:37;;;;;;;4.97;2.70;;;;;;;;;;4956051;28;20572;-93
2023/07/18 08:42:04;;;;;;;6.20;3.03;;;;;;;;;;4950521;28;20458;-94
2023/07/18 08:44:30;;;;;;;4.13;2.20;;;;;;;;;;4935591;29;20427;-94
2023/07/18 08:46:56;;;;;;;5.17;2.70;;;;;;;;;;4935526;29;20773;-95
2023/07/18 08:49:23;;;;;;;6.70;2.73;;;;;;;;;;4941017;28;20426;-96
2023/07/18 08:51:49;;;;;;;4.63;2.90;;;;;;;;;;4970522;28;20425;-96
2023/07/18 08:54:16;;;;;;;4.50;2.40;;;;;;;;;;4957920;28;20395;-94
2023/07/18 08:56:43;;;;;;;4.83;2.60;;;;;;;;;;4952275;29;20436;-96
2023/07/18 08:59:10;;;;;;;4.43;2.40;;;;;;;;;;4912643;29;20729;-94
2023/07/18 09:01:36;;;;;;;3.10;2.13;;;;;;;;;;4917215;29;20464;-93
2023/07/18 09:04:02;;;;;;;4.80;2.73;;;;;;;;;;4917855;29;20420;-94
2023/07/18 09:06:29;;;;;;;3.30;2.40;;;;;;;;;;4913842;29;20420;-93
2023/07/18 09:08:55;;;;;;;7.93;3.03;;;;;;;;;;4920130;29;20443;-96
2023/07/18 09:11:21;;;;;;;4.53;4.00;;;;;;;;;;4915542;29;20781;-94
2023/07/18 09:13:48;;;;;;;4.97;2.67;;;;;;;;;;4896923;29;20432;-95
2023/07/18 09:16:20;;;;;;;8.73;2.50;;;;;;;;;;4901816;29;20429;-95
2023/07/18 09:18:50;;;;;;;4.50;2.53;;;;;;;;;;4896215;29;20421;-94
2023/07/18 09:21:16;;;;;;;5.00;2.17;;;;;;;;;;4896648;29;20477;-93
2023/07/18 09:23:42;;;;;;;3.27;1.97;;;;;;;;;;4910309;29;20476;-93
2023/07/18 09:26:10;;;;;;;3.77;3.10;;;;;;;;;;4916919;29;20449;-94
2023/07/18 09:28:36;;;;;;;5.13;3.17;;;;;;;;;;4916783;29;20483;-94
2023/07/18 09:31:02;;;;;;;3.00;2.10;;;;;;;;;;4935322;29;20457;-94
2023/07/18 09:33:29;;;;;;;4.33;2.60;;;;;;;;;;4935195;28;20432;-95
2023/07/18 09:36:00;;;;;;;7.40;2.67;;;;;;;;;;4850869;29;20511;-94
2023/07/18 09:38:26;;;;;;;4.60;2.80;;;;;;;;;;4874533;29;20447;-92
2023/07/18 09:40:54;;;;;;;3.70;2.20;;;;;;;;;;4889655;29;20473;-96
2023/07/18 09:43:20;;;;;;;3.20;2.20;;;;;;;;;;4905231;29;20429;-92
2023/07/18 09:45:47;;;;;;;4.33;2.20;;;;;;;;;;4891173;29;20456;-92
2023/07/18 09:48:12;;;;;;;5.10;2.43;;;;;;;;;;4867562;29;20451;-91
2023/07/18 09:51:00;;;;;;;4.20;2.27;;;;;;;;;;4852571;29;20431;-94
2023/07/18 09:53:45;;;;;;;7.50;3.13;;;;;;;;;;4851846;29;20563;-94
2023/07/18 09:56:20;;;;;;;4.13;2.50;;;;;;;;;;4840090;29;20445;-95
2023/07/18 09:58:47;;;;;;;4.27;2.80;;;;;;;;;;4857314;29;20863;-93
2023/07/18 10:01:16;;;;;;;6.80;3.27;;;;;;;;;;4844020;29;20490;-93
2023/07/18 10:03:42;;;;;;;3.60;2.30;;;;;;;;;;4838218;29;20684;-93
2023/07/18 10:06:10;;;;;;;3.13;2.37;;;;;;;;;;4848283;29;20422;-95
2023/07/18 10:08:37;;;;;;;6.20;3.47;;;;;;;;;;4894814;29;20433;-94
2023/07/18 10:11:04;;;;;;;4.37;2.53;;;;;;;;;;4894014;29;20417;-94
2023/07/18 10:13:32;;;;;;;3.77;2.97;;;;;;;;;;4897393;29;20500;-94
2023/07/18 10:16:15;;;;;;;5.80;2.57;;;;;;;;;;4913953;29;20423;-93
2023/07/18 10:18:45;;;;;;;7.07;2.97;;;;;;;;;;4938624;28;20450;-95
2023/07/18 10:21:15;;;;;;;5.00;2.83;;;;;;;;;;4953637;28;21015;-94
2023/07/18 10:23:42;;;;;;;4.47;2.93;;;;;;;;;;4949177;28;20446;-94
2023/07/18 10:26:08;;;;;;;4.40;2.50;;;;;;;;;;4951567;28;20465;-94
2023/07/18 10:28:47;;;;;;;5.03;3.67;;;;;;;;;;4950401;28;20477;-94
2023/07/18 10:31:27;;;;;;;3.70;2.97;;;;;;;;;;4954248;28;20472;-94
2023/07/18 10:34:09;;;;;;;5.30;3.40;;;;;;;;;;4962288;28;20437;-95
2023/07/18 10:36:35;;;;;;;4.20;3.20;;;;;;;;;;4967932;28;20410;-91
2023/07/18 10:39:12;;;;;;;4.07;3.37;;;;;;;;;;4963347;28;20482;-91
2023/07/18 10:41:41;;;;;;;3.90;2.57;;;;;;;;;;4953511;28;20431;-95
2023/07/18 10:44:10;;;;;;;4.03;3.00;;;;;;;;;;4953877;28;20474;-95
2023/07/18 10:46:36;;;;;;;4.97;3.13;;;;;;;;;;4959461;28;20414;-95
2023/07/18 10:49:03;;;;;;;5.97;2.90;;;;;;;;;;4950110;28;20430;-93
2023/07/18 10:51:35;;;;;;;4.73;2.93;;;;;;;;;;4957498;28;20422;-95
2023/07/18 10:54:02;;;;;;;5.60;2.90;;;;;;;;;;4956086;28;20889;-93
2023/07/18 10:56:28;;;;;;;5.57;3.37;;;;;;;;;;4946560;28;20426;-94
2023/07/18 10:58:57;;;;;;;7.03;3.40;;;;;;;;;;4956539;28;20434;-95
2023/07/18 11:04:05;;;;;;;8.03;3.00;;;;;;;;;;5069565;23;20491;-91
2023/07/18 11:06:31;;;;;;;5.07;3.20;;;;;;;;;;4969196;28;20437;-89
2023/07/18 11:08:57;;;;;;;7.07;3.00;;;;;;;;;;4970308;28;20440;-89
2023/07/18 11:11:23;;;;;;;6.10;3.10;;;;;;;;;;4968864;28;20429;-89
2023/07/18 11:13:49;;;;;;;8.67;2.70;;;;;;;;;;4986436;28;20420;-91
2023/07/18 11:16:15;;;;;;;5.63;3.20;;;;;;;;;;4990845;28;20897;-89
2023/07/18 11:18:42;;;;;;;5.33;3.30;;;;;;;;;;4975518;28;20831;-89
2023/07/18 11:21:08;;;;;;;3.90;2.90;;;;;;;;;;5013032;28;20460;-89
2023/07/18 11:23:34;;;;;;;4.60;2.63;;;;;;;;;;4999154;28;20432;-92
2023/07/18 11:26:00;;;;;;;4.33;2.80;;;;;;;;;;4971650;28;20539;-92
2023/07/18 11:28:32;;;;;;;4.33;3.00;;;;;;;;;;4974635;28;20460;-92
2023/07/18 11:30:58;;;;;;;6.50;2.57;;;;;;;;;;4971313;28;20517;-92
2023/07/18 11:33:28;;;;;;;4.53;3.17;;;;;;;;;;4990576;28;20421;-92
2023/07/18 11:35:54;;;;;;;3.83;2.80;;;;;;;;;;4977333;28;20499;-91
2023/07/18 11:38:23;;;;;;;4.10;2.93;;;;;;;;;;4999086;28;20437;-91
2023/07/18 11:40:49;;;;;;;5.60;3.20;;;;;;;;;;4971048;28;20448;-92
2023/07/18 11:43:18;;;;;;;4.43;3.23;;;;;;;;;;4974956;28;20485;-92
2023/07/18 11:45:44;;;;;;;4.77;3.30;;;;;;;;;;4972157;28;20803;-91
2023/07/18 11:48:10;;;;;;;7.03;3.77;;;;;;;;;;4972163;28;20499;-93
2023/07/18 11:50:36;;;;;;;5.53;3.20;;;;;;;;;;4969544;28;21007;-92
2023/07/18 11:53:03;;;;;;;5.40;3.37;;;;;;;;;;4973695;28;20425;-93
2023/07/18 11:55:30;;;;;;;5.40;3.37;;;;;;;;;;4963871;28;20509;-94
2023/07/18 11:57:57;;;;;;;3.83;2.43;;;;;;;;;;4972231;28;20456;-94
2023/07/18 12:00:24;;;;;;;11.13;3.50;;;;;;;;;;4996409;28;20455;-90
2023/07/18 12:02:52;;;;;;;4.93;3.37;;;;;;;;;;4977388;28;20449;-92
2023/07/18 12:05:18;;;;;;;6.20;3.53;;;;;;;;;;4985683;28;20527;-93
2023/07/18 12:07:44;;;;;;;7.10;3.40;;;;;;;;;;4978922;28;20428;-93
2023/07/18 12:10:10;;;;;;;4.33;3.33;;;;;;;;;;4990578;28;20439;-92
2023/07/18 12:12:38;;;;;;;5.43;3.70;;;;;;;;;;4974776;28;20428;-93
2023/07/18 12:15:05;;;;;;;5.00;4.10;;;;;;;;;;4971557;28;20435;-94
2023/07/18 12:17:31;;;;;;;5.80;3.67;;;;;;;;;;4973316;28;20428;-93
2023/07/18 12:19:57;;;;;;;4.27;3.17;;;;;;;;;;4969675;28;20468;-94
2023/07/18 12:22:24;;;;;;;3.70;3.27;;;;;;;;;;4971612;28;20524;-93
2023/07/18 12:24:50;;;;;;;6.77;3.77;;;;;;;;;;4989534;28;20421;-93
2023/07/18 12:27:16;;;;;;;8.10;3.30;;;;;;;;;;4973726;28;20413;-93
2023/07/18 12:29:42;;;;;;;10.00;3.00;;;;;;;;;;4971575;28;20492;-92
2023/07/18 12:32:11;;;;;;;6.10;3.50;;;;;;;;;;4958214;28;20453;-91
2023/07/18 12:34:41;;;;;;;5.53;3.47;;;;;;;;;;4970797;28;20426;-93
2023/07/18 12:37:08;;;;;;;5.50;3.33;;;;;;;;;;4971347;28;20449;-91
2023/07/18 12:39:34;;;;;;;3.70;2.73;;;;;;;;;;4971022;28;20445;-92
2023/07/18 12:42:00;;;;;;;4.87;3.07;;;;;;;;;;4985626;28;20539;-92
2023/07/18 12:44:39;;;;;;;3.50;2.90;;;;;;;;;;4978259;28;20485;-92
2023/07/18 12:47:06;;;;;;;6.17;3.53;;;;;;;;;;4967048;28;20446;-93
2023/07/18 12:49:32;;;;;;;4.80;3.60;;;;;;;;;;4974693;28;20440;-93
2023/07/18 12:51:58;;;;;;;8.60;3.93;;;;;;;;;;4974110;28;20437;-93
2023/07/18 12:54:24;;;;;;;5.40;3.60;;;;;;;;;;4973022;28;20505;-91
2023/07/18 12:57:02;;;;;;;6.30;3.90;;;;;;;;;;5003836;28;20445;-93
2023/07/18 13:00:01;;;;;;;6.10;3.23;;;;;;;;;;4958180;28;20464;-93
2023/07/18 14:05:18;;;;;;;4.30;3.40;;;;;;;;;;4977401;28;20491;-89
2023/07/18 14:07:44;;;;;;;4.70;3.13;;;;;;;;;;4942120;29;20526;-87
2023/07/18 14:10:10;;;;;;;6.83;3.93;;;;;;;;;;4963332;28;20431;-91
2023/07/18 14:12:36;;;;;;;4.50;3.70;;;;;;;;;;4942876;29;20430;-92
2023/07/18 14:15:02;;;;;;;4.97;3.23;;;;;;;;;;4946772;28;20423;-89
2023/07/18 14:17:29;;;;;;;4.73;3.10;;;;;;;;;;4945349;28;20430;-89
2023/07/18 14:19:55;;;;;;;5.97;3.33;;;;;;;;;;4946064;28;20461;-89
2023/07/18 14:22:21;;;;;;;4.10;3.10;;;;;;;;;;4946530;28;20456;-88
2023/07/18 14:24:47;;;;;;;6.80;4.77;;;;;;;;;;4970786;28;21118;-91
2023/07/18 14:27:13;;;;;;;6.57;3.43;;;;;;;;;;4952298;28;20442;-91
2023/07/18 14:29:40;;;;;;;6.87;3.70;;;;;;;;;;4957521;28;20436;-90
2023/07/18 14:32:09;;;;;;;7.40;3.97;;;;;;;;;;4959061;28;20445;-91
2023/07/18 14:34:39;;;;;;;5.30;3.87;;;;;;;;;;4950006;28;20477;-90
2023/07/18 14:37:05;;;;;;;3.80;3.10;;;;;;;;;;4947641;28;20501;-90
2023/07/18 14:39:31;;;;;;;5.40;3.10;;;;;;;;;;4964797;28;20577;-91
2023/07/18 14:41:57;;;;;;;5.80;3.70;;;;;;;;;;4950962;28;20446;-90
2023/07/18 14:44:23;;;;;;;3.80;3.40;;;;;;;;;;4973669;28;20507;-90
2023/07/18 14:46:49;;;;;;;4.33;3.40;;;;;;;;;;4948184;28;21294;-89
2023/07/18 14:49:15;;;;;;;6.53;3.73;;;;;;;;;;4947923;28;20426;-90
2023/07/18 14:51:41;;;;;;;4.77;3.57;;;;;;;;;;4948397;28;20436;-90
2023/07/18 14:54:07;;;;;;;4.90;3.50;;;;;;;;;;4947894;28;20877;-89
2023/07/18 14:56:37;;;;;;;5.57;3.87;;;;;;;;;;4965444;28;20442;-91
2023/07/18 14:59:03;;;;;;;5.67;3.17;;;;;;;;;;4950957;28;20960;-91
2023/07/18 15:01:28;;;;;;;3.93;3.23;;;;;;;;;;4960494;28;20465;-92
2023/07/18 15:03:54;;;;;;;5.87;3.67;;;;;;;;;;4950678;28;20428;-91
2023/07/18 15:06:21;;;;;;;4.60;3.43;;;;;;;;;;4948453;28;20453;-91
2023/07/18 15:08:47;;;;;;;5.37;4.10;;;;;;;;;;4956577;28;20444;-90
2023/07/18 15:11:13;;;;;;;4.63;3.60;;;;;;;;;;4947022;28;20978;-89
2023/07/18 15:13:40;;;;;;;5.73;3.80;;;;;;;;;;4949662;28;20941;-89
2023/07/18 15:16:06;;;;;;;5.93;3.67;;;;;;;;;;4946023;28;20442;-91
2023/07/18 15:18:32;;;;;;;5.20;3.40;;;;;;;;;;4951275;28;20515;-93
2023/07/18 15:20:58;;;;;;;6.50;4.27;;;;;;;;;;4969686;28;20852;-91
2023/07/18 15:23:24;;;;;;;6.03;4.50;;;;;;;;;;4973185;28;20440;-91
2023/07/18 15:25:50;;;;;;;5.33;3.40;;;;;;;;;;4956455;28;20441;-93
2023/07/18 15:28:17;;;;;;;5.47;4.20;;;;;;;;;;4953084;28;20498;-90
2023/07/18 15:30:43;;;;;;;6.90;3.63;;;;;;;;;;4955494;28;20472;-92
2023/07/18 15:33:09;;;;;;;4.27;3.87;;;;;;;;;;4953796;28;20425;-92
2023/07/18 15:35:35;;;;;;;5.00;3.70;;;;;;;;;;4959432;28;20527;-92
2023/07/18 15:38:01;;;;;;;9.40;3.93;;;;;;;;;;4950917;29;20434;-90
2023/07/18 15:40:27;;;;;;;5.60;4.03;;;;;;;;;;4945831;29;20470;-90
2023/07/18 15:42:53;;;;;;;5.23;3.60;;;;;;;;;;4951793;28;20493;-90
2023/07/18 15:45:19;;;;;;;5.50;3.83;;;;;;;;;;4966220;28;20434;-90
2023/07/18 15:47:47;;;;;;;6.83;3.83;;;;;;;;;;4974397;28;20426;-90
2023/07/18 15:50:13;;;;;;;5.00;3.97;;;;;;;;;;4965951;28;20442;-90
2023/07/18 15:52:39;;;;;;;5.20;4.17;;;;;;;;;;4936628;28;20433;-89
2023/07/18 15:55:05;;;;;;;7.27;4.50;;;;;;;;;;4967860;28;20410;-90
2023/07/18 15:57:31;;;;;;;4.63;3.73;;;;;;;;;;4949906;28;20489;-90
2023/07/18 15:59:57;;;;;;;5.97;3.63;;;;;;;;;;4948351;29;20474;-91
2023/07/18 16:02:23;;;;;;;5.13;4.13;;;;;;;;;;4941274;28;20943;-89
2023/07/18 16:04:49;;;;;;;5.27;4.07;;;;;;;;;;4948473;29;20431;-90
2023/07/18 16:07:15;;;;;;;5.20;3.93;;;;;;;;;;4931916;29;20425;-90
2023/07/18 16:09:48;;;;;;;5.97;4.03;;;;;;;;;;4932914;29;20474;-90
2023/07/18 16:12:14;;;;;;;6.90;3.37;;;;;;;;;;4943927;28;20447;-90
2023/07/18 16:14:40;;;;;;;6.27;4.13;;;;;;;;;;4950130;28;20450;-91
2023/07/18 16:17:09;;;;;;;6.23;4.00;;;;;;;;;;4966894;28;20406;-91
2023/07/18 16:19:35;;;;;;;6.77;3.97;;;;;;;;;;4951690;28;20450;-89
2023/07/18 16:22:01;;;;;;;6.40;4.33;;;;;;;;;;4951377;28;21008;-90
2023/07/18 16:24:27;;;;;;;5.67;3.83;;;;;;;;;;4946909;29;20422;-91
2023/07/18 16:26:53;;;;;;;6.40;3.60;;;;;;;;;;4941019;28;20960;-92
2023/07/18 16:29:19;;;;;;;6.13;3.93;;;;;;;;;;4967719;28;20478;-92
2023/07/18 16:31:45;;;;;;;6.17;4.30;;;;;;;;;;4946576;29;20437;-92
2023/07/18 16:34:11;;;;;;;7.90;4.20;;;;;;;;;;4930756;29;20453;-92
2023/07/18 16:36:37;;;;;;;5.67;3.80;;;;;;;;;;4929318;28;20421;-91
2023/07/18 16:39:03;;;;;;;5.20;3.97;;;;;;;;;;4947245;28;20464;-92
2023/07/18 16:41:29;;;;;;;9.03;3.40;;;;;;;;;;4945589;28;20458;-90
2023/07/18 16:43:55;;;;;;;4.67;3.50;;;;;;;;;;4962341;28;20774;-92
2023/07/18 16:46:21;;;;;;;5.40;4.00;;;;;;;;;;4945643;28;20426;-91
2023/07/18 16:48:49;;;;;;;4.50;4.03;;;;;;;;;;4945924;28;20544;-92
2023/07/18 16:51:16;;;;;;;5.93;3.90;;;;;;;;;;4947861;28;20438;-91
2023/07/18 16:53:42;;;;;;;6.00;4.53;;;;;;;;;;4947986;28;20509;-91
2023/07/18 16:56:11;;;;;;;5.90;4.90;;;;;;;;;;4966575;28;20829;-92
2023/07/18 16:58:37;;;;;;;8.03;4.60;;;;;;;;;;4944634;28;20666;-92
2023/07/18 17:01:03;;;;;;;4.87;3.90;;;;;;;;;;4954537;28;20958;-92
2023/07/18 17:03:29;;;;;;;5.77;4.70;;;;;;;;;;4940550;28;20982;-90
2023/07/18 17:05:55;;;;;;;6.30;4.20;;;;;;;;;;4947365;28;20434;-91
2023/07/18 17:08:22;;;;;;;4.73;4.23;;;;;;;;;;4949335;28;20516;-92
2023/07/18 17:10:47;;;;;;;5.10;3.90;;;;;;;;;;4944098;28;20438;-91
2023/07/18 17:13:14;;;;;;;6.17;4.60;;;;;;;;;;4950267;28;21060;-92
2023/07/18 17:15:39;;;;;;;5.53;4.30;;;;;;;;;;4964125;28;20422;-92
2023/07/18 17:18:09;;;;;;;7.10;4.10;;;;;;;;;;4945539;28;20462;-92
2023/07/18 17:20:35;;;;;;;4.97;4.00;;;;;;;;;;4947916;28;21043;-91
2023/07/18 17:23:02;;;;;;;5.30;4.27;;;;;;;;;;4930349;29;20446;-92
2023/07/18 17:25:27;;;;;;;6.40;3.50;;;;;;;;;;4940828;28;20448;-92
2023/07/18 17:27:54;;;;;;;11.03;4.93;;;;;;;;;;4951287;28;20438;-92
2023/07/18 17:30:20;;;;;;;8.47;4.70;;;;;;;;;;4947681;28;20430;-91
2023/07/18 17:32:46;;;;;;;5.83;4.27;;;;;;;;;;4948763;28;20448;-92
2023/07/18 17:35:12;;;;;;;9.20;4.80;;;;;;;;;;4945827;28;20941;-91
2023/07/18 17:37:40;;;;;;;5.97;4.07;;;;;;;;;;4962852;28;20413;-92
2023/07/18 17:40:07;;;;;;;7.13;4.40;;;;;;;;;;4948294;28;20553;-92
2023/07/18 17:42:33;;;;;;;6.43;5.10;;;;;;;;;;4962824;28;20407;-92
2023/07/18 17:44:59;;;;;;;7.43;5.40;;;;;;;;;;4949191;28;20565;-92
2023/07/18 17:47:25;;;;;;;8.30;5.57;;;;;;;;;;4951038;28;20460;-94
2023/07/18 17:49:51;;;;;;;5.30;4.70;;;;;;;;;;4954918;28;20429;-90
2023/07/18 17:52:17;;;;;;;6.00;4.30;;;;;;;;;;4948530;28;20531;-91
2023/07/18 17:54:43;;;;;;;5.17;3.40;;;;;;;;;;4945308;28;20458;-91
2023/07/18 17:57:09;;;;;;;5.80;4.80;;;;;;;;;;4957563;28;20448;-91
2023/07/18 17:59:38;;;;;;;6.13;4.67;;;;;;;;;;4951360;28;20430;-90
2023/07/18 18:02:04;;;;;;;6.57;5.23;;;;;;;;;;4949397;28;20785;-90
2023/07/18 18:04:31;;;;;;;5.70;4.73;;;;;;;;;;4944233;28;20455;-90
2023/07/18 18:06:58;;;;;;;8.30;4.40;;;;;;;;;;4969688;28;20453;-90
2023/07/18 18:09:24;;;;;;;6.77;4.90;;;;;;;;;;4966262;28;20490;-91
2023/07/18 18:11:55;;;;;;;6.70;4.97;;;;;;;;;;4956304;28;20462;-92
2023/07/18 18:14:22;;;;;;;6.33;3.93;;;;;;;;;;4951339;28;20496;-90
2023/07/18 18:16:48;;;;;;;10.20;3.93;;;;;;;;;;4950107;28;20441;-92
2023/07/18 18:19:14;;;;;;;8.67;5.10;;;;;;;;;;4936324;28;20427;-91
2023/07/18 18:21:41;;;;;;;5.93;4.60;;;;;;;;;;4936071;29;20466;-93
2023/07/18 18:24:07;;;;;;;4.90;4.50;;;;;;;;;;4942682;28;20436;-92
2023/07/18 18:26:35;;;;;;;5.27;3.97;;;;;;;;;;4943773;29;20435;-91
2023/07/18 18:29:05;;;;;;;6.07;4.43;;;;;;;;;;4946245;28;20442;-92
2023/07/18 18:31:36;;;;;;;9.33;4.90;;;;;;;;;;4951999;28;20469;-91
2023/07/18 18:34:02;;;;;;;6.50;4.50;;;;;;;;;;4944756;28;20473;-92
2023/07/18 18:36:29;;;;;;;5.87;4.53;;;;;;;;;;4948703;28;20426;-92
2023/07/18 18:38:59;;;;;;;7.50;4.30;;;;;;;;;;4946707;29;20466;-92
2023/07/18 18:41:25;;;;;;;7.80;4.20;;;;;;;;;;4925836;29;20463;-91
2023/07/18 18:43:52;;;;;;;6.17;4.10;;;;;;;;;;4898683;29;21119;-91
2023/07/18 18:46:18;;;;;;;7.77;4.17;;;;;;;;;;4925582;28;20955;-91
2023/07/18 18:48:44;;;;;;;6.10;4.57;;;;;;;;;;4924973;29;20439;-91
2023/07/18 18:51:10;;;;;;;6.60;4.50;;;;;;;;;;4907320;29;20479;-90
2023/07/18 18:53:36;;;;;;;5.53;4.50;;;;;;;;;;4922131;29;20440;-91
2023/07/18 18:56:02;;;;;;;5.43;4.80;;;;;;;;;;4905629;29;20435;-90
2023/07/18 18:58:28;;;;;;;9.90;5.60;;;;;;;;;;4924720;29;20419;-91
2023/07/18 19:00:54;;;;;;;11.47;5.20;;;;;;;;;;4923801;29;20467;-90